Time;durP1;ratioP1;P1;durP2;ratioP2;P2;SDS_P1;SDS_P2;PMS_P1;PMS_P2;Temp;Humidity;BMP_temperature;BMP_pressure;BME280_temperature;BME280_humidity;BME280_pressure;Samples;Min_cycle;Max_cycle;Signal;HPM_P1;HPM_P2
2021/01/15 00:00:08;;;;;;;3.08;1.45;;;19.70;62.80;;;;;;5073788;28;20017;-60
2021/01/15 00:02:33;;;;;;;1.35;1.15;;;19.70;63.00;;;;;;5065818;28;20639;-61
2021/01/15 00:04:59;;;;;;;3.28;1.42;;;19.80;62.90;;;;;;5069370;28;20025;-59
2021/01/15 00:07:24;;;;;;;3.05;1.27;;;19.70;62.90;;;;;;5069402;28;20106;-62
2021/01/15 00:09:50;;;;;;;1.50;1.40;;;19.80;62.80;;;;;;5069755;28;20037;-63
2021/01/15 00:12:15;;;;;;;2.15;1.50;;;19.80;62.80;;;;;;5076822;28;20536;-50
2021/01/15 00:14:41;;;;;;;1.10;1.00;;;19.80;62.80;;;;;;5067980;28;20028;-60
2021/01/15 00:17:07;;;;;;;1.60;1.25;;;19.70;62.70;;;;;;5067792;28;20090;-59
2021/01/15 00:19:32;;;;;;;1.25;1.15;;;19.70;62.80;;;;;;5069662;28;20124;-59
2021/01/15 00:21:58;;;;;;;1.67;1.20;;;19.70;62.90;;;;;;5069609;28;20028;-61
2021/01/15 00:24:23;;;;;;;1.30;1.20;;;19.70;62.80;;;;;;5067964;28;20024;-51
2021/01/15 00:26:49;;;;;;;2.40;1.30;;;19.70;62.90;;;;;;5072594;28;20043;-59
2021/01/15 00:29:15;;;;;;;1.25;1.15;;;19.70;63.50;;;;;;5064233;28;20443;-59
2021/01/15 00:31:46;;;;;;;1.10;1.00;;;19.80;62.80;;;;;;5070817;28;20082;-60
2021/01/15 00:34:12;;;;;;;1.65;1.10;;;19.80;62.80;;;;;;5069493;28;20025;-56
2021/01/15 00:36:39;;;;;;;1.83;1.38;;;19.70;62.60;;;;;;5071025;28;20040;-60
2021/01/15 00:39:05;;;;;;;1.42;1.05;;;19.80;62.70;;;;;;5076846;28;20073;-60
2021/01/15 00:41:36;;;;;;;1.25;1.15;;;19.70;62.50;;;;;;5066602;28;20114;-60
2021/01/15 00:44:02;;;;;;;0.95;0.90;;;19.70;63.20;;;;;;5062487;28;21627;-58
2021/01/15 00:46:34;;;;;;;1.30;0.80;;;19.70;62.50;;;;;;5064346;28;20032;-54
2021/01/15 00:49:07;;;;;;;1.30;1.20;;;19.70;62.40;;;;;;5079933;28;20028;-65
2021/01/15 00:51:33;;;;;;;0.93;0.88;;;19.80;62.50;;;;;;5076868;28;20038;-58
2021/01/15 05:57:50;;;;;;;0.38;0.30;;;18.40;65.30;;;;;;5105775;27;20478;-49
2021/01/15 06:00:25;;;;;;;0.25;0.20;;;18.70;65.40;;;;;;5106164;27;20055;-52
2021/01/15 06:02:57;;;;;;;0.32;0.20;;;18.70;65.10;;;;;;5093297;28;20038;-58
2021/01/15 06:05:24;;;;;;;0.70;0.30;;;18.80;65.00;;;;;;5106979;28;20460;-56
2021/01/15 06:07:56;;;;;;;0.68;0.60;;;18.80;64.90;;;;;;5105512;28;20139;-56
2021/01/15 06:10:21;;;;;;;1.05;0.30;;;18.80;64.90;;;;;;5106666;28;20903;-57
2021/01/15 06:12:47;;;;;;;0.38;0.17;;;18.90;64.60;;;;;;5105966;28;20032;-57
2021/01/15 06:15:13;;;;;;;2.00;0.40;;;18.90;65.30;;;;;;5105738;28;20116;-51
2021/01/15 06:17:39;;;;;;;2.58;0.20;;;18.90;65.20;;;;;;5092403;28;20532;-36
2021/01/15 06:20:06;;;;;;;0.40;0.38;;;18.90;65.20;;;;;;5112284;28;20063;-57
2021/01/15 06:22:44;;;;;;;0.85;0.30;;;18.90;65.10;;;;;;5122316;28;20024;-57
2021/01/15 06:25:34;;;;;;;0.40;0.30;;;18.90;65.10;;;;;;5108010;28;20373;-60
2021/01/15 06:28:01;;;;;;;0.90;0.38;;;18.80;65.10;;;;;;5125642;27;20035;-58
2021/01/15 06:30:31;;;;;;;0.40;0.30;;;18.80;65.00;;;;;;5118506;28;20552;-58
2021/01/15 06:33:10;;;;;;;0.40;0.20;;;18.80;65.00;;;;;;5127054;27;20483;-58
2021/01/15 06:35:37;;;;;;;2.92;0.40;;;18.80;65.40;;;;;;5118735;28;20137;-57
2021/01/15 06:38:04;;;;;;;0.52;0.40;;;18.80;65.40;;;;;;5113003;28;20126;-54
2021/01/15 06:40:34;;;;;;;6.35;0.68;;;18.80;65.30;;;;;;5113026;28;20050;-57
2021/01/15 06:43:02;;;;;;;0.85;0.47;;;18.80;65.10;;;;;;5127656;27;20016;-58
2021/01/15 06:45:42;;;;;;;1.45;0.30;;;18.80;65.10;;;;;;5094634;27;20032;-58
2021/01/15 06:48:10;;;;;;;3.13;0.77;;;18.80;64.90;;;;;;5113352;28;20043;-57
2021/01/15 06:50:38;;;;;;;0.55;0.28;;;18.80;64.60;;;;;;5120240;28;20102;-57
2021/01/15 06:53:16;;;;;;;0.57;0.30;;;18.80;64.60;;;;;;5121868;28;20028;-58
2021/01/15 06:55:52;;;;;;;0.98;0.38;;;18.80;64.60;;;;;;5121190;28;20027;-58
2021/01/15 06:58:39;;;;;;;1.17;0.50;;;18.90;64.50;;;;;;5101003;28;20031;-57
2021/01/15 07:01:11;;;;;;;1.65;0.35;;;18.90;64.20;;;;;;5097727;28;20424;-57
2021/01/15 07:03:45;;;;;;;0.82;0.40;;;18.90;64.20;;;;;;5112006;28;20028;-58
2021/01/15 07:06:30;;;;;;;0.47;0.40;;;18.80;64.20;;;;;;5106581;28;20092;-53
2021/01/15 07:08:57;;;;;;;0.85;0.50;;;18.80;64.40;;;;;;5079406;28;20043;-57
2021/01/15 07:11:24;;;;;;;0.65;0.30;;;18.80;64.50;;;;;;5099187;28;20016;-48
2021/01/15 07:13:54;;;;;;;0.32;0.20;;;18.90;63.90;;;;;;5098378;28;20500;-55
2021/01/15 07:16:29;;;;;;;1.63;0.50;;;18.80;63.70;;;;;;5104628;28;20024;-53
2021/01/15 07:19:08;;;;;;;0.32;0.30;;;18.80;65.10;;;;;;5093107;28;20019;-57
2021/01/15 07:21:34;;;;;;;0.88;0.30;;;18.80;64.30;;;;;;5107037;28;20072;-59
2021/01/15 07:24:08;;;;;;;2.50;0.30;;;18.70;64.50;;;;;;5108415;28;20030;-55
2021/01/15 07:26:39;;;;;;;0.90;0.65;;;18.70;64.20;;;;;;5108770;28;20035;-56
2021/01/15 07:29:05;;;;;;;0.98;0.55;;;18.80;64.10;;;;;;5110233;28;20027;-59
2021/01/15 07:31:31;;;;;;;0.93;0.30;;;18.80;64.00;;;;;;5109964;28;20027;-56
2021/01/15 07:33:58;;;;;;;1.05;0.30;;;18.80;63.90;;;;;;5075928;28;20031;-58
2021/01/15 07:36:37;;;;;;;0.30;0.30;;;18.80;63.80;;;;;;5094228;28;20023;-52
2021/01/15 07:39:06;;;;;;;0.47;0.30;;;18.90;63.80;;;;;;5112223;28;20668;-49
2021/01/15 07:41:38;;;;;;;0.93;0.50;;;18.90;63.70;;;;;;5109889;28;20539;-49
2021/01/15 07:44:22;;;;;;;1.95;0.47;;;18.90;63.70;;;;;;5103465;28;20098;-54
2021/01/15 07:46:54;;;;;;;2.72;0.50;;;18.90;63.90;;;;;;5108623;28;20077;-53
2021/01/15 07:49:19;;;;;;;0.47;0.30;;;18.90;63.50;;;;;;5111430;28;20027;-42
2021/01/15 07:52:04;;;;;;;0.40;0.40;;;18.90;63.60;;;;;;5088433;28;20385;-56
2021/01/15 07:54:50;;;;;;;1.00;0.40;;;18.90;63.80;;;;;;5107959;28;20035;-57
2021/01/15 07:57:17;;;;;;;1.17;0.45;;;18.80;64.00;;;;;;5109764;28;20051;-54
2021/01/15 07:59:42;;;;;;;0.85;0.22;;;18.90;64.30;;;;;;5089502;28;20031;-53
2021/01/15 08:02:08;;;;;;;0.38;0.38;;;18.90;63.60;;;;;;5106327;28;20032;-55
2021/01/15 08:04:34;;;;;;;1.90;0.50;;;18.90;63.60;;;;;;5106144;28;20020;-59
2021/01/15 08:07:12;;;;;;;0.25;0.25;;;18.80;64.00;;;;;;5115634;28;20047;-56
2021/01/15 08:09:41;;;;;;;0.50;0.38;;;18.80;64.00;;;;;;5110168;28;20030;-56
2021/01/15 08:12:07;;;;;;;0.57;0.30;;;18.80;64.10;;;;;;5083654;28;20433;-57
2021/01/15 08:14:33;;;;;;;0.57;0.45;;;18.80;64.10;;;;;;5088934;28;20109;-58
2021/01/15 08:16:58;;;;;;;0.50;0.32;;;18.70;64.00;;;;;;5108913;28;20024;-54
2021/01/15 08:19:24;;;;;;;0.30;0.30;;;18.70;64.10;;;;;;5105703;28;20374;-58
2021/01/15 08:21:50;;;;;;;0.85;0.30;;;18.70;64.00;;;;;;5109063;28;20027;-56
2021/01/15 08:24:17;;;;;;;0.30;0.30;;;18.70;63.90;;;;;;5079652;28;20032;-58
2021/01/15 08:26:53;;;;;;;0.95;0.30;;;18.70;63.90;;;;;;5106911;27;20043;-57
2021/01/15 08:29:19;;;;;;;0.93;0.30;;;18.70;63.90;;;;;;5105454;28;20034;-57
2021/01/15 08:31:45;;;;;;;0.68;0.40;;;18.70;64.00;;;;;;5106967;28;20019;-58
2021/01/15 08:34:15;;;;;;;1.42;0.20;;;18.80;64.60;;;;;;5107679;28;20027;-56
2021/01/15 08:36:42;;;;;;;0.30;0.30;;;18.80;63.60;;;;;;5104914;28;20109;-58
2021/01/15 08:39:11;;;;;;;0.43;0.20;;;18.80;63.80;;;;;;5102450;28;20055;-56
2021/01/15 08:41:37;;;;;;;0.38;0.20;;;18.80;63.80;;;;;;5046897;28;20045;-56
2021/01/15 08:44:03;;;;;;;0.40;0.20;;;18.80;63.40;;;;;;5045431;28;20051;-51
2021/01/15 08:46:31;;;;;;;0.60;0.20;;;18.80;63.60;;;;;;5050550;28;20048;-57
2021/01/15 08:48:56;;;;;;;0.10;0.10;;;18.70;63.50;;;;;;5056230;28;20509;-55
2021/01/15 08:51:25;;;;;;;0.40;0.15;;;18.80;63.90;;;;;;5059445;28;20040;-53
2021/01/15 08:54:10;;;;;;;1.65;0.20;;;18.80;63.70;;;;;;5066810;28;20069;-53
2021/01/15 08:56:38;;;;;;;;;;;18.80;64.00;;;;;;5053850;28;20080;-55
2021/01/15 08:59:05;;;;;;;0.40;0.28;;;18.80;64.00;;;;;;5041945;28;19920;-53
2021/01/15 09:01:35;;;;;;;0.30;0.25;;;18.80;64.10;;;;;;5063082;28;20045;-55
2021/01/15 09:04:04;;;;;;;1.02;0.30;;;18.80;64.70;;;;;;5051960;28;20076;-57
2021/01/15 09:06:30;;;;;;;2.00;0.30;;;18.80;64.40;;;;;;5065550;28;20044;-51
2021/01/15 09:09:03;;;;;;;1.77;0.30;;;18.70;64.30;;;;;;5053809;28;20097;-55
2021/01/15 09:11:30;;;;;;;1.77;0.30;;;18.70;64.20;;;;;;5056213;28;20048;-53
2021/01/15 09:13:56;;;;;;;0.77;0.40;;;18.80;64.40;;;;;;5062937;28;20042;-53
2021/01/15 09:16:22;;;;;;;0.70;0.40;;;18.70;64.10;;;;;;5077332;28;20041;-55
2021/01/15 09:18:50;;;;;;;0.20;0.20;;;18.70;64.20;;;;;;5074952;28;20060;-56
2021/01/15 09:21:15;;;;;;;0.77;0.35;;;18.70;64.20;;;;;;5077289;28;20161;-56
2021/01/15 09:23:41;;;;;;;0.60;0.40;;;18.70;64.30;;;;;;5072360;28;20553;-54
2021/01/15 09:26:07;;;;;;;0.35;0.35;;;18.70;64.20;;;;;;5075193;28;20137;-56
2021/01/15 09:28:33;;;;;;;0.50;0.20;;;18.70;64.20;;;;;;5071263;28;20131;-54
2021/01/15 09:30:58;;;;;;;0.20;0.20;;;18.70;64.30;;;;;;5064617;28;20435;-54
2021/01/15 09:33:24;;;;;;;0.30;0.30;;;18.70;64.20;;;;;;5071984;28;20044;-53
2021/01/15 09:35:52;;;;;;;0.47;0.30;;;18.70;64.30;;;;;;5069130;28;20055;-56
2021/01/15 09:38:17;;;;;;;0.40;0.30;;;18.60;64.20;;;;;;5066684;28;20186;-55
2021/01/15 09:40:43;;;;;;;0.50;0.20;;;18.70;64.30;;;;;;5074723;28;20049;-53
2021/01/15 09:43:08;;;;;;;0.30;0.28;;;18.60;64.20;;;;;;5074539;28;20051;-53
2021/01/15 09:45:35;;;;;;;0.20;0.20;;;18.60;64.20;;;;;;5072604;28;20044;-50
2021/01/15 09:48:00;;;;;;;0.30;0.28;;;18.60;64.20;;;;;;5073712;28;20043;-51
2021/01/15 09:50:26;;;;;;;0.35;0.20;;;18.60;64.20;;;;;;5064442;28;20045;-52
2021/01/15 09:52:51;;;;;;;1.38;0.40;;;18.60;64.20;;;;;;5072424;28;20159;-54
2021/01/15 09:55:17;;;;;;;0.38;0.38;;;18.70;63.90;;;;;;5070994;28;20029;-51
2021/01/15 09:57:46;;;;;;;0.50;0.22;;;18.70;63.90;;;;;;5066039;28;20055;-51
2021/01/15 10:00:12;;;;;;;1.20;0.40;;;18.70;63.90;;;;;;5069505;28;20036;-52
2021/01/15 10:02:38;;;;;;;0.30;0.30;;;18.70;63.90;;;;;;5061745;28;20386;-54
2021/01/15 10:05:04;;;;;;;0.30;0.30;;;18.70;63.90;;;;;;5071084;28;20121;-54
2021/01/15 10:07:30;;;;;;;0.52;0.30;;;18.60;63.90;;;;;;5069571;28;20531;-55
2021/01/15 10:09:56;;;;;;;0.20;0.20;;;18.70;63.80;;;;;;5078041;28;20052;-54
2021/01/15 10:12:21;;;;;;;0.65;0.30;;;18.70;63.90;;;;;;5069344;28;20056;-51
2021/01/15 10:14:47;;;;;;;0.32;0.30;;;18.70;63.80;;;;;;5068565;28;20082;-53
2021/01/15 10:17:12;;;;;;;0.38;0.35;;;18.70;63.80;;;;;;5069410;28;20048;-51
2021/01/15 10:19:38;;;;;;;0.60;0.32;;;18.60;63.80;;;;;;5072277;28;20165;-52
2021/01/15 10:22:03;;;;;;;0.75;0.20;;;18.70;63.60;;;;;;5066327;28;20041;-55
2021/01/15 10:24:29;;;;;;;0.10;0.10;;;18.70;63.40;;;;;;5072486;28;20601;-51
2021/01/15 10:26:55;;;;;;;1.23;0.35;;;18.70;63.50;;;;;;5070389;28;20052;-54
2021/01/15 10:29:20;;;;;;;0.85;0.30;;;18.70;63.40;;;;;;5070840;28;20056;-53
2021/01/15 10:31:54;;;;;;;0.40;0.30;;;18.70;63.50;;;;;;5069219;28;20131;-55
2021/01/15 10:34:19;;;;;;;0.23;0.20;;;18.70;63.00;;;;;;5070399;28;20048;-50
2021/01/15 10:36:45;;;;;;;0.28;0.20;;;18.70;63.10;;;;;;5076098;28;20549;-51
2021/01/15 10:39:11;;;;;;;0.38;0.30;;;18.70;63.10;;;;;;5074281;28;20040;-52
2021/01/15 10:41:38;;;;;;;0.20;0.13;;;18.70;63.10;;;;;;5068495;28;20429;-54
2021/01/15 10:44:05;;;;;;;0.30;0.30;;;18.70;63.00;;;;;;5068692;28;20052;-52
2021/01/15 10:46:40;;;;;;;0.65;0.45;;;18.70;63.00;;;;;;5068573;28;20048;-56
2021/01/15 10:49:06;;;;;;;0.82;0.38;;;18.80;63.00;;;;;;5072644;28;20177;-56
2021/01/15 10:51:32;;;;;;;1.55;0.30;;;18.80;63.00;;;;;;5067241;28;20055;-53
2021/01/15 10:53:57;;;;;;;0.20;0.20;;;18.80;62.80;;;;;;5066537;28;20040;-54
2021/01/15 10:56:24;;;;;;;0.30;0.30;;;18.80;63.00;;;;;;5063954;28;20597;-54
2021/01/15 10:58:50;;;;;;;0.30;0.30;;;18.80;63.70;;;;;;5064966;28;20040;-50
2021/01/15 11:01:15;;;;;;;0.20;0.20;;;18.80;63.00;;;;;;5063797;28;20616;-45
2021/01/15 11:03:43;;;;;;;0.40;0.30;;;18.80;63.00;;;;;;5065274;28;20055;-52
2021/01/15 11:06:09;;;;;;;0.50;0.50;;;18.80;62.80;;;;;;5064745;28;20785;-55
2021/01/15 11:08:35;;;;;;;1.30;0.52;;;18.80;62.50;;;;;;5062491;28;20494;-54
2021/01/15 11:11:00;;;;;;;0.30;0.20;;;18.90;62.70;;;;;;5064563;28;20044;-55
2021/01/15 11:13:26;;;;;;;0.90;0.30;;;18.90;63.50;;;;;;5063856;28;20110;-56
2021/01/15 11:15:51;;;;;;;0.30;0.30;;;18.80;62.60;;;;;;5064833;28;20547;-55
2021/01/15 11:18:17;;;;;;;0.38;0.30;;;18.90;62.50;;;;;;5068968;28;20074;-55
2021/01/15 11:20:44;;;;;;;1.33;0.55;;;18.90;62.60;;;;;;5065800;28;20048;-58
2021/01/15 11:23:10;;;;;;;60.55;46.40;;;18.90;62.70;;;;;;5064938;28;20041;-55
2021/01/15 11:25:36;;;;;;;45.33;36.63;;;18.90;63.00;;;;;;5069919;28;20429;-55
2021/01/15 11:28:01;;;;;;;43.63;35.30;;;18.90;62.80;;;;;;5066675;28;20041;-47
2021/01/15 11:30:27;;;;;;;42.08;34.65;;;19.00;63.00;;;;;;5062354;28;20581;-57
2021/01/15 11:32:53;;;;;;;30.50;27.25;;;19.00;62.80;;;;;;5067467;28;20048;-60
2021/01/15 11:35:18;;;;;;;18.60;16.67;;;19.00;62.30;;;;;;5062342;28;20041;-60
2021/01/15 11:37:44;;;;;;;17.17;15.43;;;19.00;61.60;;;;;;4712193;28;10000022;-54
2021/01/15 11:40:10;;;;;;;14.82;13.50;;;19.10;61.50;;;;;;5067475;28;20048;-49
2021/01/15 11:42:36;;;;;;;15.95;14.32;;;19.10;61.40;;;;;;5068143;28;20425;-60
2021/01/15 11:45:02;;;;;;;16.13;14.43;;;19.10;61.90;;;;;;5071279;28;20100;-58
2021/01/15 11:47:27;;;;;;;15.05;13.60;;;19.10;62.20;;;;;;5065655;28;20056;-60
2021/01/15 11:49:53;;;;;;;13.43;12.15;;;19.10;62.30;;;;;;5065462;28;20501;-53
2021/01/15 11:52:18;;;;;;;15.77;14.30;;;19.10;62.30;;;;;;5064478;28;20048;-60
2021/01/15 11:54:44;;;;;;;16.13;14.52;;;19.10;62.00;;;;;;5069299;28;20045;-61
2021/01/15 11:57:10;;;;;;;17.38;15.55;;;19.10;62.10;;;;;;5063998;28;20052;-61
2021/01/15 11:59:35;;;;;;;16.25;14.75;;;19.20;62.80;;;;;;5067352;28;20051;-61
2021/01/15 12:02:01;;;;;;;17.52;14.70;;;19.30;62.80;;;;;;5062004;28;20051;-61
2021/01/15 12:04:26;;;;;;;16.95;15.32;;;19.30;62.10;;;;;;5062901;28;20372;-54
2021/01/15 12:06:55;;;;;;;16.45;14.75;;;19.30;62.90;;;;;;5065770;28;20060;-61
2021/01/15 12:09:21;;;;;;;16.23;14.73;;;19.30;62.20;;;;;;5067470;28;20090;-59
2021/01/15 12:11:47;;;;;;;16.33;14.73;;;19.30;62.20;;;;;;5070868;28;20382;-53
2021/01/15 12:14:13;;;;;;;16.48;14.63;;;19.40;62.20;;;;;;5063324;28;20567;-57
2021/01/15 12:16:39;;;;;;;17.58;15.88;;;19.40;62.30;;;;;;5064411;28;20131;-52
2021/01/15 12:19:07;;;;;;;16.90;15.20;;;19.40;62.30;;;;;;5064365;28;20091;-60
2021/01/15 12:21:34;;;;;;;21.50;14.75;;;19.50;62.20;;;;;;5064763;28;20067;-61
2021/01/15 12:24:03;;;;;;;16.80;15.02;;;19.50;61.90;;;;;;5072243;28;20173;-56
2021/01/15 12:26:29;;;;;;;16.45;14.73;;;19.50;62.10;;;;;;5063425;28;20049;-59
2021/01/15 12:28:55;;;;;;;14.95;13.55;;;19.50;61.90;;;;;;5062892;28;20459;-61
2021/01/15 12:31:21;;;;;;;15.07;13.63;;;19.60;61.90;;;;;;5053788;28;20069;-59
2021/01/15 12:33:46;;;;;;;18.23;16.33;;;19.60;61.80;;;;;;5052746;28;20055;-48
2021/01/15 12:36:12;;;;;;;16.55;14.80;;;19.60;61.70;;;;;;5049138;28;20787;-60
2021/01/15 12:38:37;;;;;;;16.15;14.40;;;19.60;61.90;;;;;;5049636;28;20057;-61
2021/01/15 12:41:03;;;;;;;18.67;13.68;;;19.60;61.80;;;;;;5058066;28;20060;-57
2021/01/15 12:43:28;;;;;;;15.65;14.05;;;19.60;61.70;;;;;;5060850;28;20079;-57
2021/01/15 12:45:54;;;;;;;17.52;15.65;;;19.60;61.70;;;;;;5054466;28;20048;-56
2021/01/15 12:48:20;;;;;;;14.85;13.55;;;19.60;61.80;;;;;;5056952;28;20123;-48
2021/01/15 12:50:46;;;;;;;13.15;12.00;;;19.70;61.60;;;;;;5061665;28;20048;-56
2021/01/15 12:53:12;;;;;;;15.00;13.05;;;19.70;61.70;;;;;;5063628;28;20464;-56
2021/01/15 12:55:38;;;;;;;14.02;12.77;;;19.70;61.60;;;;;;5064821;28;20047;-59
2021/01/15 12:58:03;;;;;;;13.23;12.05;;;19.70;61.70;;;;;;5068859;28;20036;-56
2021/01/15 13:00:29;;;;;;;13.65;12.35;;;19.70;61.70;;;;;;5065546;28;20044;-62
2021/01/15 13:02:55;;;;;;;13.65;11.68;;;19.80;61.80;;;;;;5080568;28;20124;-58
2021/01/15 13:05:20;;;;;;;13.90;12.27;;;19.80;61.70;;;;;;5067395;28;20056;-63
2021/01/15 13:07:46;;;;;;;12.65;11.38;;;19.90;61.60;;;;;;5065442;28;20136;-57
2021/01/15 13:10:13;;;;;;;12.27;11.27;;;19.90;61.50;;;;;;5066118;28;20124;-56
2021/01/15 13:12:39;;;;;;;12.88;11.57;;;20.00;61.40;;;;;;5070045;28;20052;-58
2021/01/15 13:15:06;;;;;;;11.55;10.52;;;20.00;61.50;;;;;;5064761;28;20055;-51
2021/01/15 13:17:31;;;;;;;11.55;10.55;;;20.00;61.50;;;;;;5060672;28;20133;-40
2021/01/15 13:19:58;;;;;;;12.63;11.43;;;20.00;61.50;;;;;;5063346;28;20063;-54
2021/01/15 13:22:23;;;;;;;11.82;10.63;;;20.00;61.30;;;;;;5064289;28;20084;-46
2021/01/15 13:24:49;;;;;;;10.80;9.90;;;20.10;61.10;;;;;;5068353;28;20072;-58
2021/01/15 13:27:15;;;;;;;11.95;10.75;;;20.10;61.00;;;;;;5065290;28;20416;-59
2021/01/15 13:29:40;;;;;;;11.05;9.98;;;20.20;61.10;;;;;;5068669;28;20048;-54
2021/01/15 13:32:06;;;;;;;11.10;10.27;;;20.30;60.90;;;;;;5071945;28;20560;-60
2021/01/15 13:34:32;;;;;;;10.52;9.73;;;20.20;60.70;;;;;;5062899;28;20047;-59
2021/01/15 13:36:58;;;;;;;10.70;9.70;;;20.30;60.80;;;;;;5074216;28;20055;-58
2021/01/15 13:39:24;;;;;;;10.10;9.30;;;20.30;60.70;;;;;;5063214;28;20498;-55
2021/01/15 13:41:49;;;;;;;8.23;7.57;;;20.30;60.50;;;;;;5065927;28;20052;-59
2021/01/15 13:44:15;;;;;;;9.20;8.25;;;20.30;60.50;;;;;;5066691;28;20576;-52
2021/01/15 13:46:40;;;;;;;9.57;8.60;;;20.30;60.30;;;;;;5064977;28;20493;-54
2021/01/15 13:49:06;;;;;;;9.80;9.10;;;20.30;60.20;;;;;;5070901;28;20040;-60
2021/01/15 13:51:32;;;;;;;9.18;8.50;;;20.30;60.10;;;;;;5063249;28;20052;-49
2021/01/15 13:53:57;;;;;;;9.93;8.98;;;20.40;60.00;;;;;;5067127;28;20035;-59
2021/01/15 13:56:23;;;;;;;9.10;8.40;;;20.30;60.30;;;;;;5062303;28;20098;-59
2021/01/15 13:58:49;;;;;;;11.77;10.77;;;20.30;60.30;;;;;;5066282;28;20032;-62
2021/01/15 14:01:14;;;;;;;11.23;10.02;;;20.30;60.10;;;;;;5069056;28;20506;-57
2021/01/15 14:03:40;;;;;;;12.55;11.00;;;20.30;60.20;;;;;;5068970;28;20047;-50
2021/01/15 14:06:06;;;;;;;13.00;10.60;;;20.30;60.20;;;;;;5073718;28;21432;-57
2021/01/15 14:08:31;;;;;;;11.43;10.27;;;20.30;60.10;;;;;;5066218;28;20154;-54
2021/01/15 14:10:57;;;;;;;13.13;11.75;;;20.20;59.90;;;;;;5068346;28;20136;-49
2021/01/15 14:13:23;;;;;;;12.32;10.60;;;20.20;60.10;;;;;;5070781;28;20090;-53
2021/01/15 14:15:48;;;;;;;12.07;10.80;;;20.20;59.80;;;;;;5068082;28;20032;-52
2021/01/15 14:18:14;;;;;;;11.65;10.48;;;20.20;60.00;;;;;;5074008;28;20082;-55
2021/01/15 14:20:40;;;;;;;11.90;10.80;;;20.20;60.10;;;;;;5076646;28;20051;-53
2021/01/15 14:23:05;;;;;;;9.65;8.75;;;20.20;60.10;;;;;;5068407;28;20040;-52
2021/01/15 14:25:31;;;;;;;10.95;9.82;;;20.20;60.30;;;;;;5072104;28;20032;-49
2021/01/15 14:27:57;;;;;;;14.85;11.75;;;20.20;60.00;;;;;;5070180;28;20028;-53
2021/01/15 14:30:23;;;;;;;13.00;11.07;;;20.20;60.30;;;;;;5079980;28;20032;-48
2021/01/15 14:32:53;;;;;;;9.48;8.63;;;20.20;60.30;;;;;;5074072;28;20052;-52
2021/01/15 14:35:20;;;;;;;10.55;9.43;;;20.20;60.30;;;;;;5078818;28;20020;-54
2021/01/15 14:37:48;;;;;;;10.77;9.68;;;20.20;60.00;;;;;;5072998;28;20035;-56
2021/01/15 14:40:14;;;;;;;11.50;10.35;;;20.20;59.90;;;;;;5079369;28;20032;-54
2021/01/15 14:42:40;;;;;;;11.48;10.38;;;20.30;59.90;;;;;;5076419;28;20029;-55
2021/01/15 14:45:06;;;;;;;13.80;11.35;;;20.20;59.90;;;;;;5081104;28;20024;-55
2021/01/15 14:47:32;;;;;;;11.77;10.55;;;20.20;60.00;;;;;;5072904;28;20033;-55
2021/01/15 14:49:58;;;;;;;11.07;9.85;;;20.10;60.20;;;;;;5075139;28;20025;-57
2021/01/15 14:52:23;;;;;;;16.67;9.90;;;20.10;60.20;;;;;;5082104;28;20036;-53
2021/01/15 14:54:49;;;;;;;10.20;9.20;;;20.10;60.20;;;;;;5083280;28;20033;-57
2021/01/15 14:57:15;;;;;;;10.35;9.38;;;20.10;60.30;;;;;;5079440;28;20049;-55
2021/01/15 14:59:40;;;;;;;11.30;9.65;;;20.10;60.20;;;;;;5071714;28;20052;-50
2021/01/15 15:02:06;;;;;;;10.52;9.52;;;20.10;60.40;;;;;;5073580;28;20044;-49
2021/01/15 15:04:32;;;;;;;12.27;10.95;;;20.10;60.50;;;;;;5067107;28;20488;-44
2021/01/15 15:06:57;;;;;;;16.45;13.60;;;20.10;60.20;;;;;;5074751;28;20513;-45
2021/01/15 15:09:23;;;;;;;13.63;11.77;;;20.10;60.00;;;;;;5081756;28;20020;-44
2021/01/15 15:11:48;;;;;;;16.83;13.98;;;20.10;59.90;;;;;;5077867;28;20123;-43
2021/01/15 15:14:14;;;;;;;18.70;14.65;;;20.10;59.80;;;;;;5074660;28;20382;-44
2021/01/15 15:16:40;;;;;;;17.20;13.23;;;20.00;60.00;;;;;;5077200;28;20047;-46
2021/01/15 15:19:06;;;;;;;15.98;13.00;;;20.00;60.10;;;;;;5076453;28;20052;-46
2021/01/15 15:21:31;;;;;;;15.65;13.88;;;20.00;60.10;;;;;;5075018;28;20042;-48
2021/01/15 15:23:57;;;;;;;16.17;13.10;;;20.00;60.40;;;;;;5073952;28;20028;-49
2021/01/15 15:26:22;;;;;;;15.15;13.55;;;19.90;60.20;;;;;;5069950;28;20056;-50
2021/01/15 15:28:49;;;;;;;15.88;12.75;;;19.90;60.00;;;;;;5063706;28;20132;-49
2021/01/15 15:31:15;;;;;;;15.90;13.57;;;19.90;60.30;;;;;;5069220;28;20052;-44
2021/01/15 15:33:41;;;;;;;16.52;12.65;;;19.80;60.50;;;;;;5071245;28;20553;-52
2021/01/15 15:36:08;;;;;;;13.68;12.18;;;19.80;60.60;;;;;;5069439;28;20081;-47
2021/01/15 15:38:34;;;;;;;16.70;11.35;;;19.80;60.60;;;;;;5070416;28;20055;-50
2021/01/15 15:40:59;;;;;;;13.02;11.63;;;19.80;60.40;;;;;;5066645;28;20047;-48
2021/01/15 15:43:32;;;;;;;14.43;12.40;;;19.80;60.60;;;;;;5075098;28;20407;-47
2021/01/15 15:46:02;;;;;;;15.10;13.13;;;19.70;60.60;;;;;;5072449;28;20040;-48
2021/01/15 15:48:28;;;;;;;15.70;10.27;;;19.70;60.70;;;;;;5067026;28;20036;-46
2021/01/15 15:50:54;;;;;;;16.73;11.30;;;19.70;61.00;;;;;;5066645;28;20058;-51
2021/01/15 15:53:20;;;;;;;13.95;10.05;;;19.70;60.90;;;;;;5058588;28;20048;-43
2021/01/15 15:55:45;;;;;;;12.75;11.45;;;19.70;60.50;;;;;;5064109;28;20102;-42
2021/01/15 15:58:11;;;;;;;13.57;9.85;;;19.70;60.50;;;;;;5078921;28;20041;-49
2021/01/15 16:00:37;;;;;;;11.90;9.20;;;19.70;60.40;;;;;;5070581;28;20032;-49
2021/01/15 16:03:04;;;;;;;11.20;10.00;;;19.60;60.30;;;;;;5069018;28;20044;-49
2021/01/15 16:05:29;;;;;;;11.52;9.88;;;19.70;60.50;;;;;;5071661;28;20040;-48
2021/01/15 16:07:55;;;;;;;9.55;8.63;;;19.70;60.40;;;;;;5064661;28;20090;-48
2021/01/15 16:10:21;;;;;;;9.98;8.98;;;19.70;60.50;;;;;;5066293;28;20048;-49
2021/01/15 16:12:46;;;;;;;11.90;9.70;;;19.60;60.30;;;;;;5068259;28;20047;-49
2021/01/15 16:15:12;;;;;;;14.05;9.43;;;19.60;60.50;;;;;;5077099;28;20412;-45
2021/01/15 16:17:39;;;;;;;9.55;8.65;;;19.60;61.40;;;;;;5066369;28;20047;-47
2021/01/15 16:20:06;;;;;;;13.27;9.70;;;19.60;60.70;;;;;;5064602;28;20417;-50
2021/01/15 16:22:31;;;;;;;15.65;9.60;;;19.60;60.60;;;;;;5069519;28;20049;-49
2021/01/15 16:24:57;;;;;;;13.75;9.50;;;19.60;61.00;;;;;;5070937;28;20524;-50
2021/01/15 16:27:23;;;;;;;11.10;9.90;;;19.50;61.20;;;;;;5070243;28;20056;-49
2021/01/15 16:29:49;;;;;;;11.90;9.85;;;19.50;61.10;;;;;;5069596;28;20051;-50
2021/01/15 16:32:15;;;;;;;10.13;8.93;;;19.50;61.00;;;;;;5068245;28;20506;-48
2021/01/15 16:34:40;;;;;;;11.10;9.02;;;19.50;61.10;;;;;;5068480;28;20132;-54
2021/01/15 16:37:06;;;;;;;16.05;8.57;;;19.60;61.10;;;;;;5075971;28;20123;-40
2021/01/15 16:39:32;;;;;;;13.07;11.27;;;19.60;61.30;;;;;;5065813;28;20135;-46
2021/01/15 16:42:07;;;;;;;10.32;9.18;;;19.60;61.00;;;;;;5062655;28;20418;-49
2021/01/15 16:44:34;;;;;;;12.75;9.77;;;19.60;61.00;;;;;;5065645;28;20048;-44
2021/01/15 16:47:00;;;;;;;13.10;10.30;;;19.60;61.00;;;;;;5065416;28;20173;-44
2021/01/15 16:49:25;;;;;;;12.25;9.70;;;19.50;60.60;;;;;;5065837;28;20503;-41
2021/01/15 16:51:51;;;;;;;21.60;10.02;;;19.50;61.30;;;;;;5075067;28;20071;-48
2021/01/15 16:54:17;;;;;;;10.85;9.10;;;19.50;61.10;;;;;;5069294;28;20039;-45
2021/01/15 16:56:52;;;;;;;12.50;10.30;;;19.50;61.30;;;;;;4976732;28;20052;-45
2021/01/15 16:59:18;;;;;;;11.13;9.75;;;19.50;61.10;;;;;;4999557;28;21084;-53
2021/01/15 17:01:48;;;;;;;11.27;10.07;;;19.50;60.90;;;;;;5042615;28;20129;-43
2021/01/15 17:04:14;;;;;;;15.02;11.00;;;19.50;60.80;;;;;;5067063;28;20056;-44
2021/01/15 17:06:39;;;;;;;18.02;14.27;;;19.50;60.70;;;;;;5071901;28;20075;-45
2021/01/15 17:09:05;;;;;;;17.85;12.57;;;19.40;60.80;;;;;;5068499;28;20516;-40
2021/01/15 17:11:31;;;;;;;17.42;13.68;;;19.40;60.90;;;;;;5073364;28;20070;-40
2021/01/15 17:13:56;;;;;;;20.77;14.45;;;19.40;61.10;;;;;;5067858;28;20044;-44
2021/01/15 17:16:22;;;;;;;16.83;13.00;;;19.30;61.30;;;;;;5073852;28;20593;-43
2021/01/15 17:18:48;;;;;;;18.00;13.02;;;19.40;61.60;;;;;;5061816;28;20048;-51
2021/01/15 17:21:14;;;;;;;17.35;13.23;;;19.40;61.70;;;;;;5066081;28;20540;-45
2021/01/15 17:23:40;;;;;;;15.73;11.38;;;19.40;61.60;;;;;;5067054;28;20052;-48
2021/01/15 17:26:06;;;;;;;15.52;13.15;;;19.40;61.90;;;;;;5059872;28;20048;-50
2021/01/15 17:28:31;;;;;;;15.07;10.90;;;19.40;61.50;;;;;;5062143;28;20068;-49
2021/01/15 17:30:57;;;;;;;20.80;12.02;;;19.40;61.60;;;;;;5062026;28;20110;-50
2021/01/15 17:33:23;;;;;;;15.88;12.57;;;19.40;61.60;;;;;;5061835;28;20048;-51
2021/01/15 17:35:48;;;;;;;18.75;10.77;;;19.40;61.50;;;;;;5067784;28;20048;-50
2021/01/15 17:38:15;;;;;;;14.13;10.48;;;19.40;61.50;;;;;;5063492;28;20106;-49
2021/01/15 17:40:41;;;;;;;16.30;10.50;;;19.40;61.70;;;;;;5056727;28;20048;-46